createdAt,value
2023-05-17T00:01:52.243Z,18.40
2023-05-17T00:04:20.597Z,16.47
2023-05-17T00:06:48.946Z,18.00
2023-05-17T00:09:17.194Z,18.63
2023-05-17T00:11:45.570Z,18.10
2023-05-17T00:14:13.881Z,16.03
2023-05-17T00:16:43.681Z,15.97
2023-05-17T00:19:12.085Z,17.00
2023-05-17T00:21:40.517Z,16.70
2023-05-17T00:24:09.349Z,14.67
2023-05-17T00:26:37.752Z,16.23
2023-05-17T00:29:06.406Z,12.43
2023-05-17T00:31:34.626Z,13.20
2023-05-17T00:34:04.290Z,13.30
2023-05-17T00:36:32.523Z,14.57
2023-05-17T00:39:02.485Z,13.87
2023-05-17T00:41:30.783Z,15.00
2023-05-17T00:43:59.105Z,13.23
2023-05-17T00:46:27.717Z,13.23
2023-05-17T00:48:56.210Z,15.23
2023-05-17T00:51:25.908Z,20.47
2023-05-17T00:53:54.387Z,25.37
2023-05-17T00:56:22.780Z,24.83
2023-05-17T00:58:51.194Z,26.80
2023-05-17T01:01:19.625Z,26.70
2023-05-17T01:03:48.203Z,28.40
2023-05-17T01:06:16.682Z,28.30
2023-05-17T01:08:46.497Z,27.70
2023-05-17T01:11:27.278Z,29.73
2023-05-17T01:14:01.325Z,31.20
2023-05-17T01:16:34.914Z,31.57
2023-05-17T01:19:13.879Z,30.93
2023-05-17T01:21:59.195Z,32.90
2023-05-17T01:24:34.562Z,32.03
2023-05-17T01:27:07.200Z,29.20
2023-05-17T01:29:38.667Z,32.87
2023-05-17T01:32:08.631Z,33.40
2023-05-17T01:34:37.212Z,32.40
2023-05-17T01:37:06.012Z,28.90
2023-05-17T01:39:34.731Z,24.30
2023-05-17T01:42:12.390Z,25.83
2023-05-17T01:44:47.094Z,19.60
2023-05-17T01:47:25.716Z,20.90
2023-05-17T01:49:56.618Z,23.10
2023-05-17T01:52:31.779Z,25.63
2023-05-17T01:55:07.729Z,27.60
2023-05-17T01:57:38.332Z,27.43
2023-05-17T02:00:09.293Z,26.30
2023-05-17T02:02:45.138Z,25.45
2023-05-17T02:05:13.755Z,25.37
2023-05-17T02:07:42.085Z,25.90
2023-05-17T02:10:11.181Z,25.20
2023-05-17T02:12:44.426Z,23.03
2023-05-17T02:15:13.920Z,26.30
2023-05-17T02:17:42.518Z,28.17
2023-05-17T02:20:12.029Z,27.27
2023-05-17T02:22:40.436Z,25.40
2023-05-17T02:25:09.733Z,27.57
2023-05-17T02:27:37.933Z,26.60
2023-05-17T02:30:09.279Z,26.03
2023-05-17T02:32:39.009Z,25.57
2023-05-17T02:35:09.505Z,25.63
2023-05-17T02:37:37.799Z,24.73
2023-05-17T02:40:09.912Z,24.90
2023-05-17T02:42:38.255Z,21.73
2023-05-17T02:45:09.175Z,21.67
2023-05-17T02:47:37.681Z,18.77
2023-05-17T02:50:06.938Z,18.48
2023-05-17T02:52:35.630Z,18.50
2023-05-17T02:55:04.696Z,18.47
2023-05-17T02:57:33.067Z,18.73
2023-05-17T03:00:01.448Z,18.57
2023-05-17T03:02:31.952Z,17.65
2023-05-17T03:05:00.619Z,18.33
2023-05-17T03:07:29.840Z,18.05
2023-05-17T03:09:58.403Z,17.92
2023-05-17T03:12:29.688Z,17.20
2023-05-17T03:14:58.723Z,16.80
2023-05-17T03:17:27.267Z,16.03
2023-05-17T03:19:58.031Z,17.88
2023-05-17T03:22:27.050Z,14.80
2023-05-17T03:24:56.977Z,16.58
2023-05-17T03:27:25.414Z,16.35
2023-05-17T03:29:54.077Z,16.90
2023-05-17T03:32:24.391Z,16.27
2023-05-17T03:34:53.051Z,17.15
2023-05-17T03:37:23.247Z,16.48
2023-05-17T03:39:51.532Z,16.30
2023-05-17T03:42:20.067Z,18.47
2023-05-17T03:44:49.142Z,16.98
2023-05-17T03:47:17.559Z,19.25
2023-05-17T03:49:46.427Z,16.38
2023-05-17T03:52:15.107Z,17.85
2023-05-17T03:54:46.318Z,17.83
2023-05-17T03:57:16.395Z,18.52
2023-05-17T03:59:44.623Z,21.83
2023-05-17T04:02:12.987Z,35.92
2023-05-17T04:04:41.447Z,48.53
2023-05-17T04:07:09.807Z,23.85
2023-05-17T04:09:38.210Z,23.25
2023-05-17T04:12:09.179Z,92.15
2023-05-17T04:14:37.488Z,42.75
2023-05-17T04:17:06.486Z,75.60
2023-05-17T04:19:35.389Z,27.27
2023-05-17T04:22:03.784Z,28.33
2023-05-17T04:24:32.274Z,42.85
2023-05-17T04:27:03.283Z,25.57
2023-05-17T04:29:33.525Z,27.60
2023-05-17T04:32:02.018Z,28.80
2023-05-17T04:34:32.058Z,27.55
2023-05-17T04:37:01.645Z,26.20
2023-05-17T04:39:30.953Z,25.60
2023-05-17T04:41:59.819Z,26.47
2023-05-17T04:44:28.519Z,25.57
2023-05-17T04:46:58.970Z,25.40
2023-05-17T04:49:28.404Z,26.83
2023-05-17T04:51:58.448Z,25.60
2023-05-17T04:54:27.241Z,23.93
2023-05-17T04:56:55.513Z,25.47
2023-05-17T04:59:43.847Z,23.55
2023-05-17T05:02:14.281Z,26.80
2023-05-17T05:04:42.557Z,25.17
2023-05-17T05:07:12.930Z,22.00
2023-05-17T05:09:41.533Z,23.07
2023-05-17T05:12:11.803Z,26.30
2023-05-17T05:14:40.663Z,24.40
2023-05-17T05:17:09.585Z,22.40
2023-05-17T05:19:39.447Z,21.67
2023-05-17T05:22:08.675Z,22.00
2023-05-17T05:24:39.023Z,22.60
2023-05-17T05:27:08.122Z,23.60
2023-05-17T05:29:37.671Z,21.37
2023-05-17T05:32:08.074Z,21.23
2023-05-17T05:34:42.669Z,23.07
2023-05-17T05:37:11.059Z,20.70
2023-05-17T05:39:39.812Z,22.77
2023-05-17T05:42:09.199Z,20.30
2023-05-17T05:44:37.519Z,19.47
2023-05-17T05:47:06.632Z,19.40
2023-05-17T05:49:35.067Z,18.20
2023-05-17T05:52:05.121Z,20.53
2023-05-17T05:54:33.568Z,18.37
2023-05-17T05:57:01.979Z,18.07
2023-05-17T05:59:30.168Z,19.80
2023-05-17T06:01:59.899Z,17.50
2023-05-17T06:04:40.784Z,17.30
2023-05-17T06:07:14.384Z,17.67
2023-05-17T06:09:43.228Z,16.00
2023-05-17T06:12:11.678Z,15.70
2023-05-17T06:14:39.932Z,15.10
2023-05-17T06:17:08.344Z,15.67
2023-05-17T06:19:36.944Z,15.67
2023-05-17T06:22:05.857Z,14.70
2023-05-17T06:24:35.554Z,14.40
2023-05-17T06:27:03.849Z,15.17
2023-05-17T06:29:32.080Z,12.60
2023-05-17T06:32:00.794Z,14.10
2023-05-17T06:34:29.155Z,13.10
2023-05-17T06:36:57.581Z,12.73
2023-05-17T06:39:25.889Z,14.20
2023-05-17T06:41:55.576Z,15.20
2023-05-17T06:44:23.822Z,13.23
2023-05-17T06:46:52.057Z,12.23
2023-05-17T06:49:20.264Z,15.00
2023-05-17T06:51:49.386Z,13.20
2023-05-17T06:54:24.950Z,13.57
2023-05-17T06:56:53.732Z,13.07
2023-05-17T06:59:23.742Z,12.40
2023-05-17T07:01:52.109Z,13.00
2023-05-17T07:04:20.672Z,13.90
2023-05-17T07:06:49.339Z,12.90
2023-05-17T07:09:17.544Z,13.13
2023-05-17T07:11:45.899Z,13.80
2023-05-17T07:14:14.276Z,13.20
2023-05-17T07:16:44.472Z,13.37
2023-05-17T07:19:12.810Z,13.63
2023-05-17T07:21:41.782Z,13.10
2023-05-17T07:24:10.404Z,13.83
2023-05-17T07:26:38.898Z,13.60
2023-05-17T07:29:07.236Z,16.00
2023-05-17T07:31:35.642Z,17.30
2023-05-17T07:34:06.412Z,14.00
2023-05-17T07:36:34.884Z,13.00
2023-05-17T07:39:05.352Z,13.63
2023-05-17T07:41:34.361Z,14.60
2023-05-17T07:44:02.636Z,15.20
2023-05-17T07:46:31.095Z,15.80
2023-05-17T07:48:59.453Z,17.07
2023-05-17T07:51:29.402Z,14.87
2023-05-17T07:53:57.640Z,13.97
2023-05-17T07:56:25.976Z,13.90
2023-05-17T07:58:54.291Z,12.87
2023-05-17T08:01:23.809Z,14.53
2023-05-17T08:03:52.336Z,11.87
2023-05-17T08:06:21.159Z,13.10
2023-05-17T08:08:51.043Z,14.80
2023-05-17T08:11:19.319Z,13.90
2023-05-17T08:13:47.600Z,15.57
2023-05-17T08:16:15.906Z,13.87
2023-05-17T08:18:44.508Z,13.80
2023-05-17T08:21:12.989Z,14.93
2023-05-17T08:23:42.009Z,14.43
2023-05-17T08:26:13.078Z,14.30
2023-05-17T08:28:41.667Z,13.30
2023-05-17T08:31:10.000Z,13.77
2023-05-17T08:33:38.458Z,14.53
2023-05-17T08:36:08.316Z,13.00
2023-05-17T08:38:37.309Z,15.03
2023-05-17T08:41:05.926Z,13.50
2023-05-17T08:43:35.912Z,14.63
2023-05-17T08:46:04.816Z,14.17
2023-05-17T08:48:36.812Z,13.40
2023-05-17T08:51:05.430Z,14.13
2023-05-17T08:53:35.680Z,16.37
2023-05-17T08:56:06.994Z,12.70
2023-05-17T08:58:52.154Z,12.30
2023-05-17T09:01:26.897Z,12.87
2023-05-17T09:03:55.964Z,12.30
2023-05-17T09:06:25.157Z,14.20
2023-05-17T09:08:54.776Z,14.90
2023-05-17T09:11:28.383Z,13.83
2023-05-17T09:14:01.103Z,12.90
2023-05-17T09:16:30.149Z,13.03
2023-05-17T09:18:59.924Z,13.30
2023-05-17T09:21:29.775Z,14.07
2023-05-17T09:24:06.308Z,15.10
2023-05-17T09:26:40.370Z,14.10
2023-05-17T09:29:15.113Z,14.20
2023-05-17T09:31:44.460Z,14.47
2023-05-17T09:34:13.259Z,13.60
2023-05-17T09:36:44.593Z,13.13
2023-05-17T09:39:14.806Z,12.27
2023-05-17T09:41:45.104Z,13.13
2023-05-17T09:44:15.846Z,14.23
2023-05-17T09:46:47.505Z,13.70
2023-05-17T09:49:16.870Z,13.20
2023-05-17T09:51:47.986Z,12.33
2023-05-17T09:54:17.800Z,13.43
2023-05-17T09:56:46.748Z,12.00
2023-05-17T09:59:17.782Z,11.50
2023-05-17T10:01:46.622Z,11.97
2023-05-17T10:04:20.455Z,11.30
2023-05-17T10:06:52.711Z,13.20
2023-05-17T10:09:24.235Z,11.17
2023-05-17T10:11:56.596Z,11.93
2023-05-17T10:14:31.943Z,10.67
2023-05-17T10:17:02.531Z,10.43
2023-05-17T10:19:31.741Z,11.13
2023-05-17T10:22:11.618Z,11.60
2023-05-17T10:24:48.768Z,8.83
2023-05-17T10:27:17.961Z,10.30
2023-05-17T10:29:50.461Z,9.43
2023-05-17T10:32:23.339Z,8.60
2023-05-17T10:35:05.874Z,9.70
2023-05-17T10:37:35.504Z,9.50
2023-05-17T10:40:04.410Z,9.87
2023-05-17T10:42:33.603Z,9.80
2023-05-17T10:45:04.260Z,9.80
2023-05-17T10:47:36.236Z,9.57
2023-05-17T10:50:13.163Z,11.07
2023-05-17T10:52:48.410Z,10.67
2023-05-17T10:55:20.816Z,10.03
2023-05-17T10:58:19.953Z,10.03
2023-05-17T11:00:53.196Z,10.63
2023-05-17T11:03:23.825Z,9.90
2023-05-17T11:06:24.449Z,10.50
2023-05-17T11:09:15.069Z,9.93
2023-05-17T11:12:04.985Z,9.27
2023-05-17T11:14:53.969Z,9.77
2023-05-17T11:17:28.836Z,10.30
2023-05-17T11:19:58.308Z,10.33
2023-05-17T11:22:27.704Z,11.93
2023-05-17T11:24:58.740Z,10.40
2023-05-17T11:27:28.934Z,10.73
2023-05-17T11:29:58.490Z,10.73
2023-05-17T11:32:33.664Z,11.90
2023-05-17T11:35:02.427Z,11.53
2023-05-17T11:37:32.088Z,13.80
2023-05-17T11:40:06.276Z,13.00
2023-05-17T11:42:34.936Z,11.50
2023-05-17T11:45:03.634Z,12.57
2023-05-17T11:47:34.597Z,10.23
2023-05-17T11:50:04.870Z,11.30
2023-05-17T11:52:34.242Z,10.60
2023-05-17T11:55:02.981Z,11.33
2023-05-17T11:57:31.934Z,11.23
2023-05-17T12:00:00.923Z,11.30
2023-05-17T12:02:30.567Z,12.97
2023-05-17T12:05:00.612Z,11.10
2023-05-17T12:07:29.772Z,12.70
2023-05-17T12:09:58.297Z,11.47
2023-05-17T12:12:27.443Z,11.77
2023-05-17T12:14:56.093Z,12.27
2023-05-17T12:17:31.568Z,11.70
2023-05-17T12:20:09.924Z,11.50
2023-05-17T12:22:52.902Z,10.80
2023-05-17T12:25:23.518Z,11.93
2023-05-17T12:27:52.010Z,11.00
2023-05-17T12:30:20.952Z,10.70
2023-05-17T12:32:49.523Z,9.67
2023-05-17T12:35:19.746Z,10.27
2023-05-17T12:37:48.463Z,9.37
2023-05-17T12:40:16.847Z,9.83
2023-05-17T12:42:45.226Z,9.97
2023-05-17T12:45:14.073Z,10.30
2023-05-17T12:47:42.380Z,11.97
2023-05-17T12:50:12.566Z,12.57
2023-05-17T12:52:42.430Z,13.10
2023-05-17T12:55:14.731Z,13.30
2023-05-17T12:57:50.777Z,12.50
2023-05-17T13:00:20.093Z,12.77
2023-05-17T13:02:48.452Z,11.87
2023-05-17T13:05:18.540Z,11.77
2023-05-17T13:07:48.468Z,12.00
2023-05-17T13:10:26.149Z,11.20
2023-05-17T13:12:58.321Z,12.27
2023-05-17T13:15:30.409Z,12.37
2023-05-17T13:18:00.006Z,11.10
2023-05-17T13:20:29.336Z,11.17
2023-05-17T13:22:59.328Z,12.00
2023-05-17T13:25:27.630Z,11.63
2023-05-17T13:27:55.897Z,11.80
2023-05-17T13:30:24.183Z,11.20
2023-05-17T13:32:52.541Z,12.40
2023-05-17T13:35:21.018Z,11.80
2023-05-17T13:37:49.365Z,11.87
2023-05-17T13:40:19.470Z,10.90
2023-05-17T13:42:48.321Z,10.57
2023-05-17T13:45:16.705Z,10.77
2023-05-17T13:47:45.065Z,11.37
2023-05-17T13:50:17.219Z,9.43
2023-05-17T13:52:45.621Z,9.03
2023-05-17T13:55:14.016Z,8.33
2023-05-17T13:57:43.682Z,9.33
2023-05-17T14:00:13.189Z,9.20
2023-05-17T14:02:41.630Z,9.00
2023-05-17T14:05:10.710Z,8.40
2023-05-17T14:07:41.504Z,9.20
2023-05-17T14:10:12.232Z,8.57
2023-05-17T14:12:41.282Z,9.10
2023-05-17T14:15:12.421Z,8.63
2023-05-17T14:17:41.333Z,8.33
2023-05-17T14:20:11.226Z,7.87
2023-05-17T14:22:39.705Z,8.20
2023-05-17T14:25:09.338Z,7.90
2023-05-17T14:27:37.593Z,7.90
2023-05-17T14:30:06.973Z,9.37
2023-05-17T14:32:38.604Z,7.47
2023-05-17T14:35:08.341Z,7.00
2023-05-17T14:37:37.004Z,7.13
2023-05-17T14:40:06.976Z,7.37
2023-05-17T14:42:35.457Z,7.00
2023-05-17T14:45:03.901Z,8.33
2023-05-17T14:47:32.964Z,9.27
2023-05-17T14:50:04.452Z,7.50
2023-05-17T14:52:32.820Z,8.67
2023-05-17T14:55:01.246Z,8.80
2023-05-17T14:57:29.648Z,9.20
2023-05-17T14:59:58.059Z,11.07
2023-05-17T15:02:26.462Z,11.00
2023-05-17T15:04:55.059Z,9.90
2023-05-17T15:07:24.922Z,10.47
2023-05-17T15:09:53.360Z,8.67
2023-05-17T15:12:21.752Z,11.30
2023-05-17T15:14:50.371Z,10.90
2023-05-17T15:17:18.621Z,11.53
2023-05-17T15:19:47.119Z,10.47
2023-05-17T15:22:15.467Z,12.90
2023-05-17T15:24:46.009Z,11.73
2023-05-17T15:27:16.465Z,13.03
2023-05-17T15:29:46.095Z,12.13
2023-05-17T15:32:14.276Z,12.03
2023-05-17T15:34:42.573Z,11.83
2023-05-17T15:37:10.896Z,11.90
2023-05-17T15:39:39.180Z,12.10
2023-05-17T15:42:08.817Z,11.73
2023-05-17T15:44:37.133Z,12.63
2023-05-17T15:47:05.728Z,10.43
2023-05-17T15:49:34.153Z,8.80
2023-05-17T15:52:02.450Z,10.00
2023-05-17T15:54:31.170Z,10.60
2023-05-17T15:56:59.653Z,11.20
2023-05-17T15:59:29.398Z,12.07
2023-05-17T16:01:57.616Z,12.77
2023-05-17T16:04:26.142Z,13.43
2023-05-17T16:06:54.516Z,11.63
2023-05-17T16:09:22.896Z,15.87
2023-05-17T16:11:51.174Z,12.57
2023-05-17T16:14:19.449Z,12.93
2023-05-17T16:16:49.221Z,10.90
2023-05-17T16:19:17.826Z,9.67
2023-05-17T16:21:50.413Z,10.63
2023-05-17T16:24:19.351Z,16.17
2023-05-17T16:26:47.541Z,13.23
2023-05-17T16:29:16.951Z,16.27
2023-05-17T16:31:45.625Z,14.03
2023-05-17T16:34:15.367Z,14.50
2023-05-17T16:36:47.392Z,13.90
2023-05-17T16:39:15.770Z,17.58
2023-05-17T16:41:44.067Z,18.20
2023-05-17T16:44:12.331Z,16.20
2023-05-17T16:46:40.609Z,15.17
2023-05-17T16:49:09.236Z,17.15
2023-05-17T16:51:38.992Z,19.67
2023-05-17T16:54:07.429Z,17.83
2023-05-17T16:56:35.867Z,19.73
2023-05-17T16:59:04.121Z,18.77
2023-05-17T17:01:32.625Z,17.80
2023-05-17T17:04:01.858Z,16.30
2023-05-17T17:06:30.243Z,17.80
2023-05-17T17:09:00.051Z,21.88
2023-05-17T17:11:28.609Z,20.23
2023-05-17T17:13:56.899Z,14.35
2023-05-17T17:16:25.390Z,16.80
2023-05-17T17:18:53.728Z,20.85
2023-05-17T17:21:21.991Z,12.93
2023-05-17T17:23:50.413Z,12.60
2023-05-17T17:26:20.106Z,10.05
2023-05-17T17:28:48.387Z,7.47
2023-05-17T17:31:18.277Z,6.22
2023-05-17T17:33:46.610Z,6.25
2023-05-17T17:36:15.106Z,12.57
2023-05-17T17:38:43.794Z,10.27
2023-05-17T17:41:12.090Z,9.10
2023-05-17T17:43:42.709Z,6.82
2023-05-17T17:46:11.133Z,5.47
2023-05-17T17:48:39.453Z,5.70
2023-05-17T17:51:07.803Z,6.88
2023-05-17T17:53:36.326Z,6.25
2023-05-17T17:56:06.662Z,6.10
2023-05-17T17:58:35.069Z,7.13
2023-05-17T18:01:05.154Z,5.80
2023-05-17T18:03:33.647Z,4.78
2023-05-17T18:06:02.057Z,5.78
2023-05-17T18:08:30.337Z,6.28
2023-05-17T18:10:58.749Z,6.63
2023-05-17T18:13:27.187Z,7.28
2023-05-17T18:15:55.420Z,7.55
2023-05-17T18:18:25.244Z,9.57
2023-05-17T18:20:53.611Z,10.68
2023-05-17T18:23:22.042Z,13.07
2023-05-17T18:25:50.830Z,11.27
2023-05-17T18:28:29.718Z,12.40
2023-05-17T18:31:06.360Z,12.00
2023-05-17T18:33:36.155Z,12.25
2023-05-17T18:36:04.770Z,10.93
2023-05-17T18:38:33.135Z,14.90
2023-05-17T18:41:01.405Z,19.63
2023-05-17T18:43:31.157Z,14.68
2023-05-17T18:45:59.963Z,18.38
2023-05-17T18:48:28.556Z,25.58
2023-05-17T18:50:59.952Z,25.52
2023-05-17T18:53:29.297Z,19.38
2023-05-17T18:55:59.735Z,16.08
2023-05-17T18:58:28.065Z,15.88
2023-05-17T19:00:56.641Z,15.35
2023-05-17T19:03:25.073Z,11.65
2023-05-17T19:05:53.382Z,10.05
2023-05-17T19:08:23.136Z,10.57
2023-05-17T19:10:51.858Z,10.27
2023-05-17T19:13:20.200Z,10.60
2023-05-17T19:15:48.536Z,11.15
2023-05-17T19:18:16.985Z,12.27
2023-05-17T19:20:45.338Z,12.85
2023-05-17T19:23:13.756Z,14.50
2023-05-17T19:25:43.361Z,12.23
2023-05-17T19:28:11.727Z,12.73
2023-05-17T19:30:40.647Z,15.30
2023-05-17T19:33:09.019Z,13.95
2023-05-17T19:35:39.476Z,10.95
2023-05-17T19:38:08.198Z,11.25
2023-05-17T19:40:36.844Z,8.43
2023-05-17T19:43:06.587Z,9.15
2023-05-17T19:45:34.809Z,8.15
2023-05-17T19:48:03.257Z,7.10
2023-05-17T19:50:32.134Z,7.90
2023-05-17T19:53:00.579Z,8.10
2023-05-17T19:55:30.400Z,9.40
2023-05-17T19:57:58.678Z,10.27
2023-05-17T20:00:28.651Z,9.93
2023-05-17T20:02:57.794Z,10.43
2023-05-17T20:05:27.284Z,12.70
2023-05-17T20:07:55.661Z,9.60
2023-05-17T20:10:24.968Z,11.55
2023-05-17T20:12:53.426Z,12.00
2023-05-17T20:15:22.807Z,11.20
2023-05-17T20:17:52.927Z,11.10
2023-05-17T20:20:21.944Z,12.68
2023-05-17T20:22:50.357Z,13.65
2023-05-17T20:25:18.734Z,15.27
2023-05-17T20:27:47.378Z,16.10
2023-05-17T20:30:15.846Z,16.55
2023-05-17T20:32:44.179Z,15.85
2023-05-17T20:35:13.857Z,17.35
2023-05-17T20:37:42.331Z,13.75
2023-05-17T20:40:11.921Z,13.38
2023-05-17T20:42:40.475Z,12.32
2023-05-17T20:45:10.709Z,12.90
2023-05-17T20:47:40.384Z,11.50
2023-05-17T20:50:12.186Z,13.63
2023-05-17T20:52:41.968Z,14.10
2023-05-17T20:55:10.574Z,12.55
2023-05-17T20:57:38.862Z,13.13
2023-05-17T21:00:11.555Z,11.95
2023-05-17T21:02:40.266Z,13.45
2023-05-17T21:05:09.214Z,12.32
2023-05-17T21:07:42.646Z,12.57
2023-05-17T21:10:12.387Z,10.77
2023-05-17T21:12:40.836Z,12.50
2023-05-17T21:17:43.132Z,12.80
2023-05-17T21:20:12.839Z,13.50
2023-05-17T21:22:41.186Z,13.20
2023-05-17T21:25:10.397Z,14.20
2023-05-17T21:27:40.042Z,12.18
2023-05-17T21:30:09.702Z,8.80
2023-05-17T21:32:37.959Z,9.18
2023-05-17T21:35:07.348Z,10.82
2023-05-17T21:37:37.096Z,9.05
2023-05-17T21:40:06.191Z,9.65
2023-05-17T21:42:34.950Z,8.00
2023-05-17T21:45:05.136Z,8.48
2023-05-17T21:47:35.922Z,7.38
2023-05-17T21:50:04.538Z,6.53
2023-05-17T21:52:32.986Z,7.15
2023-05-17T21:55:01.266Z,7.35
2023-05-17T21:57:30.014Z,8.48
2023-05-17T21:59:58.307Z,8.43
2023-05-17T22:02:28.023Z,9.20
2023-05-17T22:04:56.462Z,9.30
2023-05-17T22:07:24.793Z,9.77
2023-05-17T22:09:54.388Z,10.50
2023-05-17T22:12:25.743Z,10.13
2023-05-17T22:14:54.306Z,10.23
2023-05-17T22:17:29.530Z,9.20
2023-05-17T22:20:07.901Z,9.02
2023-05-17T22:22:37.533Z,9.13
2023-05-17T22:25:07.496Z,9.38
2023-05-17T22:27:36.033Z,9.05
2023-05-17T22:30:04.549Z,8.75
2023-05-17T22:32:32.869Z,9.00
2023-05-17T22:35:01.230Z,9.65
2023-05-17T22:37:32.945Z,8.18
2023-05-17T22:40:01.300Z,8.23
2023-05-17T22:42:29.649Z,8.13
2023-05-17T22:44:57.937Z,7.80
2023-05-17T22:47:26.830Z,7.85
2023-05-17T22:49:55.242Z,7.95
2023-05-17T22:52:23.522Z,7.88
2023-05-17T22:54:53.178Z,7.45
2023-05-17T22:57:21.622Z,6.60
2023-05-17T22:59:49.945Z,5.85
2023-05-17T23:02:18.223Z,5.55
2023-05-17T23:04:46.877Z,4.68
2023-05-17T23:07:15.117Z,5.05
2023-05-17T23:09:43.425Z,6.80
2023-05-17T23:12:14.527Z,5.80
2023-05-17T23:14:43.284Z,5.25
2023-05-17T23:17:11.502Z,4.88
2023-05-17T23:19:40.676Z,6.18
2023-05-17T23:22:10.779Z,5.22
2023-05-17T23:24:39.574Z,4.93
2023-05-17T23:27:10.045Z,5.68
2023-05-17T23:29:41.489Z,5.57
2023-05-17T23:32:09.906Z,5.85
2023-05-17T23:34:38.219Z,5.63
2023-05-17T23:37:06.592Z,6.40
2023-05-17T23:39:35.093Z,5.97
2023-05-17T23:42:03.346Z,5.80
2023-05-17T23:44:33.429Z,5.57
2023-05-17T23:47:04.335Z,4.72
2023-05-17T23:49:32.750Z,4.88
2023-05-17T23:52:02.024Z,5.45
2023-05-17T23:54:30.675Z,5.55
2023-05-17T23:56:58.968Z,5.15
2023-05-17T23:59:27.189Z,3.83
